Time;durP1;ratioP1;P1;durP2;ratioP2;P2;SDS_P1;SDS_P2;PMS_P1;PMS_P2;Temp;Humidity;BMP_temperature;BMP_pressure;BME280_temperature;BME280_humidity;BME280_pressure;Samples;Min_cycle;Max_cycle;Signal;HPM_P1;HPM_P2
2022/04/16 00:00:20;;;;;;;1.53;1.37;;;16.00;49.40;;;-142.21;64.06;112049.66;5062630;28;20519;-76
2022/04/16 00:02:47;;;;;;;1.50;1.40;;;15.90;49.40;;;-142.21;64.76;112049.66;5061796;28;20452;-76
2022/04/16 00:05:16;;;;;;;1.93;1.30;;;15.80;49.60;;;-142.21;64.99;112049.66;5072871;28;20525;-75
2022/04/16 00:07:43;;;;;;;1.50;1.40;;;15.80;49.80;;;-142.21;64.85;112049.66;5038592;28;20454;-75
2022/04/16 00:10:11;;;;;;;1.10;1.10;;;15.80;49.70;;;-142.21;65.72;112049.66;5054191;28;20476;-76
2022/04/16 00:12:38;;;;;;;1.60;1.50;;;15.80;50.00;;;-142.21;65.30;112049.66;5059099;28;20482;-75
2022/04/16 00:15:07;;;;;;;1.30;1.20;;;15.70;49.90;;;-142.21;65.36;112049.66;5074821;28;20829;-75
2022/04/16 00:17:36;;;;;;;1.30;1.20;;;15.70;50.20;;;-142.21;65.27;112049.66;5015835;28;20457;-74
2022/04/16 00:20:07;;;;;;;1.57;1.43;;;15.70;50.10;;;-142.21;64.70;112049.66;5034920;28;20822;-74
2022/04/16 00:22:34;;;;;;;1.30;1.20;;;15.70;50.10;;;-142.21;64.79;112049.66;5045747;28;20457;-75
2022/04/16 00:25:01;;;;;;;1.50;1.40;;;15.60;50.10;;;-142.21;65.78;112049.66;5069458;28;20565;-74
2022/04/16 00:27:28;;;;;;;1.33;1.23;;;15.70;49.80;;;-142.21;65.87;112049.66;5055924;28;20480;-74
2022/04/16 00:29:56;;;;;;;1.30;1.20;;;15.60;49.90;;;-142.21;64.19;112049.66;5064853;28;20451;-75
2022/04/16 00:32:24;;;;;;;1.50;1.40;;;15.50;49.80;;;-142.21;65.17;112049.66;5064255;28;20462;-74
2022/04/16 00:34:53;;;;;;;1.40;1.30;;;15.40;49.90;;;-142.21;65.09;112049.66;5059361;28;20499;-76
2022/04/16 00:37:20;;;;;;;1.40;1.30;;;15.40;50.20;;;-142.21;65.62;112049.66;5054294;28;20476;-75
2022/04/16 00:39:47;;;;;;;1.80;1.63;;;15.30;50.20;;;-142.21;65.23;112049.66;5053394;28;20448;-74
2022/04/16 00:42:14;;;;;;;1.70;1.60;;;15.20;50.30;;;-142.21;65.49;112049.66;5055082;28;20471;-75
2022/04/16 00:44:41;;;;;;;1.30;1.20;;;15.20;50.60;;;-142.21;65.02;112049.66;5053222;28;20488;-75
2022/04/16 00:47:09;;;;;;;1.27;1.17;;;15.10;50.20;;;-142.21;66.66;112049.66;5066753;28;20459;-76
2022/04/16 00:49:36;;;;;;;1.60;1.50;;;15.10;50.40;;;-142.21;66.63;112049.66;5061770;28;20538;-74
2022/04/16 00:52:08;;;;;;;1.60;1.50;;;15.10;50.70;;;-142.21;67.61;112049.66;5072677;28;20442;-75
2022/04/16 00:54:35;;;;;;;2.17;1.40;;;15.00;51.10;;;-142.21;67.91;112049.66;5033940;28;20465;-75
2022/04/16 00:57:03;;;;;;;1.77;1.67;;;15.00;51.60;;;-142.21;67.48;112049.66;5066034;28;20451;-76
2022/04/16 00:59:30;;;;;;;1.67;1.50;;;15.00;51.10;;;-142.21;68.46;112049.66;5073879;28;20516;-75
2022/04/16 01:02:02;;;;;;;1.33;1.23;;;14.90;51.10;;;-142.21;67.22;112049.66;5064590;28;20448;-75
2022/04/16 01:04:29;;;;;;;2.00;1.57;;;14.90;51.30;;;-142.21;67.49;112049.66;5058295;28;20499;-75
2022/04/16 01:06:56;;;;;;;1.93;1.73;;;14.80;51.10;;;-142.21;67.70;112049.66;5052902;28;20456;-76
2022/04/16 01:09:25;;;;;;;1.50;1.40;;;14.80;51.30;;;-142.21;68.53;112049.66;5055190;28;20452;-76
2022/04/16 01:11:52;;;;;;;1.70;1.60;;;14.80;51.50;;;-142.21;68.48;112049.66;5070704;28;20514;-76
2022/04/16 01:14:21;;;;;;;1.50;1.40;;;14.70;51.60;;;-142.21;69.31;112049.66;5053510;28;20472;-75
2022/04/16 01:16:48;;;;;;;2.17;1.60;;;14.60;51.60;;;-142.21;69.00;112049.66;5057079;28;20444;-76
2022/04/16 01:19:15;;;;;;;2.70;1.80;;;14.60;51.80;;;-142.21;69.19;112049.66;5072768;28;20538;-74
2022/04/16 01:21:43;;;;;;;1.50;1.40;;;14.50;51.80;;;-142.21;69.09;112049.66;5071613;28;20927;-75
2022/04/16 01:24:14;;;;;;;1.33;1.23;;;14.40;51.90;;;-142.21;69.42;112049.66;5032449;28;20449;-75
2022/04/16 01:26:42;;;;;;;1.67;1.57;;;14.40;51.90;;;-142.21;70.16;112049.66;5058325;28;20519;-75
2022/04/16 01:29:11;;;;;;;1.50;1.40;;;14.40;52.10;;;-142.21;69.86;112049.66;5059181;28;20448;-75
2022/04/16 01:31:38;;;;;;;1.90;1.60;;;14.40;52.00;;;-142.21;70.38;112049.66;5054463;28;20453;-76
2022/04/16 01:34:07;;;;;;;2.00;1.43;;;14.30;52.20;;;-142.21;70.92;112049.66;5018654;28;20468;-74
2022/04/16 01:36:34;;;;;;;1.43;1.30;;;14.30;52.60;;;-142.21;71.78;112049.66;5051893;28;20452;-74
2022/04/16 01:39:02;;;;;;;1.70;1.47;;;14.30;52.20;;;-142.21;72.63;112049.66;5052990;28;20449;-74
2022/04/16 01:41:31;;;;;;;1.70;1.60;;;14.40;52.50;;;-142.21;72.68;112049.66;5062892;28;20474;-75
2022/04/16 01:43:58;;;;;;;1.60;1.50;;;14.40;52.50;;;-142.21;73.34;112049.66;5065077;28;20509;-75
2022/04/16 01:46:26;;;;;;;1.73;1.63;;;14.30;52.60;;;-142.21;73.97;112049.66;5052713;28;20480;-74
2022/04/16 01:48:53;;;;;;;1.90;1.60;;;14.30;52.50;;;-142.21;74.44;112049.66;5052429;28;20444;-74
2022/04/16 01:51:21;;;;;;;1.70;1.60;;;14.30;52.50;;;-142.21;73.98;112049.66;5054377;28;20444;-75
2022/04/16 01:53:48;;;;;;;1.93;1.73;;;14.20;52.60;;;-142.21;74.16;112049.66;5071278;28;20485;-75
2022/04/16 01:56:15;;;;;;;2.40;2.20;;;14.10;52.60;;;-142.21;75.29;112049.66;5072153;28;20850;-75
2022/04/16 01:58:44;;;;;;;1.83;1.70;;;14.10;52.80;;;-142.21;74.59;112049.66;5071990;28;20518;-75
2022/04/16 02:01:12;;;;;;;1.77;1.60;;;14.10;52.70;;;-142.21;74.65;112049.66;5066914;28;20448;-74
2022/04/16 02:03:39;;;;;;;1.70;1.60;;;14.00;53.00;;;-142.21;74.99;112049.66;5055544;28;20518;-74
2022/04/16 02:06:06;;;;;;;1.87;1.67;;;13.90;53.80;;;-142.21;75.40;112049.66;5052952;28;20575;-74
2022/04/16 02:08:33;;;;;;;1.77;1.67;;;13.80;53.50;;;-142.21;75.13;112049.66;5057836;28;20447;-74
2022/04/16 02:11:01;;;;;;;1.77;1.67;;;13.70;53.50;;;-142.21;75.62;112049.66;5035002;28;20523;-75
2022/04/16 02:13:28;;;;;;;1.73;1.63;;;13.70;53.60;;;-142.21;75.98;112049.66;5065596;28;20472;-75
2022/04/16 02:15:57;;;;;;;2.80;2.10;;;13.70;53.50;;;-142.21;75.57;112049.66;5068275;28;20442;-75
2022/04/16 02:18:24;;;;;;;1.97;1.77;;;13.70;53.50;;;-142.21;75.46;112049.66;5044683;28;20444;-76
2022/04/16 02:20:52;;;;;;;2.23;1.87;;;13.70;53.60;;;-142.21;75.69;112049.66;5066974;28;20482;-75
2022/04/16 02:23:19;;;;;;;1.50;1.40;;;13.70;53.70;;;-142.21;75.63;112049.66;5070959;28;20505;-75
2022/04/16 02:25:46;;;;;;;1.70;1.60;;;13.60;53.50;;;-142.21;75.47;112049.66;5070844;28;20474;-75
2022/04/16 02:28:13;;;;;;;1.83;1.70;;;13.60;53.90;;;-142.21;76.15;112049.66;5075061;28;20442;-75
2022/04/16 02:30:40;;;;;;;2.23;2.03;;;13.60;53.60;;;-142.21;75.79;112049.66;5078124;28;20450;-75
2022/04/16 02:33:10;;;;;;;2.10;1.90;;;13.40;53.60;;;-142.21;76.33;112049.66;5078919;28;20841;-76
2022/04/16 02:35:38;;;;;;;2.17;1.80;;;13.40;54.00;;;-142.21;76.07;112049.66;5073838;28;20856;-75
2022/04/16 02:38:06;;;;;;;2.00;1.80;;;13.40;53.90;;;-142.21;76.54;112049.66;5067925;28;20527;-75
2022/04/16 02:40:34;;;;;;;2.03;1.73;;;13.30;54.30;;;-142.21;76.72;112049.66;5078207;28;20446;-75
2022/04/16 02:43:01;;;;;;;2.50;1.83;;;13.30;54.10;;;-142.21;76.19;112049.66;5077242;28;20447;-75
2022/04/16 02:48:14;;;;;;;2.73;1.60;;;13.20;54.30;;;-142.21;76.82;112049.66;5058384;28;21149;-75
2022/04/16 02:50:41;;;;;;;1.83;1.70;;;13.10;54.70;;;-142.21;77.22;112049.66;5058755;28;20531;-74
2022/04/16 02:53:09;;;;;;;2.00;1.60;;;13.10;54.50;;;-142.21;77.40;112049.66;5071171;28;20530;-75
2022/04/16 02:55:36;;;;;;;2.27;1.70;;;13.10;54.70;;;-142.21;78.19;112049.66;5078019;28;21008;-75
2022/04/16 02:58:03;;;;;;;1.60;1.50;;;13.10;54.70;;;-142.21;78.58;112049.66;5060963;28;20447;-76
2022/04/16 03:00:31;;;;;;;1.97;1.73;;;13.10;54.80;;;-142.21;79.08;112049.66;5078893;28;20475;-74
2022/04/16 03:02:58;;;;;;;1.80;1.60;;;13.20;55.10;;;-142.21;79.55;112049.66;5068459;28;20447;-74
2022/04/16 03:05:26;;;;;;;2.47;2.10;;;13.20;54.80;;;-142.21;80.35;112049.66;5077361;28;20569;-75
2022/04/16 03:07:53;;;;;;;1.93;1.83;;;13.20;54.80;;;-142.21;79.76;112049.66;5066433;28;20538;-75
2022/04/16 03:10:21;;;;;;;2.27;1.80;;;13.00;54.60;;;-142.21;80.05;112049.66;5071042;28;20477;-74
2022/04/16 03:12:52;;;;;;;1.93;1.80;;;13.00;55.10;;;-142.21;79.28;112049.66;5055487;28;20478;-74
2022/04/16 03:18:07;;;;;;;2.07;1.87;;;12.80;55.20;;;-142.21;80.59;112049.66;5078149;28;20568;-75
2022/04/16 03:20:37;;;;;;;1.60;1.50;;;12.70;55.80;;;-142.21;79.92;112049.66;5075958;28;20451;-75
2022/04/16 03:23:05;;;;;;;2.50;1.60;;;12.60;55.60;;;-142.21;80.31;112049.66;5078608;28;20439;-76
2022/04/16 03:25:32;;;;;;;2.60;1.90;;;12.50;55.70;;;-142.21;80.68;112049.66;5065653;28;20476;-75
2022/04/16 03:28:00;;;;;;;2.53;1.90;;;12.60;56.10;;;-142.21;80.67;112049.66;5069328;28;20800;-75
2022/04/16 03:30:27;;;;;;;2.00;1.80;;;12.60;55.60;;;-142.21;81.41;112049.66;5058528;28;20547;-75
2022/04/16 03:32:55;;;;;;;2.47;1.80;;;12.50;56.20;;;-142.21;81.63;112049.66;5058906;28;20539;-74
2022/04/16 03:35:24;;;;;;;1.57;1.47;;;12.40;56.00;;;-142.21;80.60;112049.66;5058474;28;20444;-73
2022/04/16 03:37:53;;;;;;;1.63;1.53;;;12.40;56.00;;;-142.21;80.95;112049.66;5058161;28;20465;-76
2022/04/16 03:40:26;;;;;;;1.80;1.60;;;12.30;56.20;;;-142.21;80.83;112049.66;5055492;28;20452;-76
2022/04/16 03:42:56;;;;;;;1.87;1.60;;;12.30;56.20;;;-142.21;81.43;112049.66;5067834;28;20440;-75
2022/04/16 03:45:26;;;;;;;2.00;1.80;;;12.30;56.40;;;-142.21;81.04;112049.66;5075031;28;20493;-75
2022/04/16 03:47:55;;;;;;;1.60;1.50;;;12.30;57.00;;;-142.21;81.59;112049.66;5057424;28;20444;-75
2022/04/16 03:50:24;;;;;;;1.73;1.47;;;12.30;57.10;;;-142.21;81.26;112049.66;5056548;28;20440;-76
2022/04/16 03:52:56;;;;;;;2.53;1.90;;;12.20;56.40;;;-142.21;81.82;112049.66;5054340;28;20444;-75
2022/04/16 04:00:57;;;;;;;2.10;1.70;;;12.20;56.90;;;-142.21;82.92;112049.66;5045390;28;20835;-73
2022/04/16 04:03:25;;;;;;;2.13;1.93;;;12.20;56.90;;;-142.21;83.13;112049.66;5055461;28;20544;-74
2022/04/16 04:05:54;;;;;;;3.00;1.83;;;12.30;56.70;;;-142.21;83.53;112049.66;5025291;28;20562;-74
2022/04/16 04:08:24;;;;;;;3.20;1.67;;;12.30;56.90;;;-142.21;83.42;112049.66;5072188;28;20452;-75
2022/04/16 04:10:51;;;;;;;1.73;1.53;;;12.30;57.00;;;-142.21;84.08;112049.66;5054323;28;20460;-75
2022/04/16 04:13:21;;;;;;;2.37;2.17;;;12.20;56.80;;;-142.21;83.57;112049.66;5055011;28;20507;-75
2022/04/16 04:15:48;;;;;;;2.50;2.30;;;12.10;56.70;;;-142.21;84.32;112049.66;5062591;28;21011;-75
2022/04/16 04:18:15;;;;;;;2.53;2.10;;;12.00;56.90;;;-142.21;84.94;112049.66;5068220;28;20977;-74
2022/04/16 04:20:42;;;;;;;2.77;2.17;;;12.10;57.10;;;-142.21;86.59;112049.66;5061270;28;20444;-75
2022/04/16 04:23:10;;;;;;;2.80;2.43;;;12.10;57.20;;;-142.21;85.84;112049.66;5018789;28;20454;-75
2022/04/16 04:25:38;;;;;;;3.97;2.30;;;12.10;57.70;;;-142.21;86.33;112049.66;5054530;28;20968;-76
2022/04/16 04:28:06;;;;;;;5.13;2.37;;;12.10;57.40;;;-142.21;87.04;112049.66;5068557;28;20527;-74
2022/04/16 04:30:33;;;;;;;2.80;2.37;;;12.20;57.60;;;-142.21;87.13;112049.66;5073992;28;20454;-76
2022/04/16 04:33:01;;;;;;;2.40;2.20;;;12.10;57.30;;;-142.21;86.50;112049.66;5069902;28;20919;-74
2022/04/16 04:35:28;;;;;;;2.50;2.30;;;12.10;57.60;;;-142.21;87.12;112049.66;5060155;28;20785;-76
2022/04/16 04:37:55;;;;;;;2.33;2.00;;;12.00;57.40;;;-142.21;86.05;112049.66;5069549;28;20852;-75
2022/04/16 04:40:23;;;;;;;3.90;2.53;;;11.90;57.50;;;-142.21;86.55;112049.66;5070966;28;20935;-75
2022/04/16 04:42:52;;;;;;;2.63;2.40;;;11.90;57.60;;;-142.21;87.27;112049.66;5054459;28;20528;-76
2022/04/16 04:45:19;;;;;;;2.90;2.50;;;11.90;58.00;;;-142.21;87.04;112049.66;5053126;28;20484;-75
2022/04/16 04:47:47;;;;;;;2.57;2.37;;;11.80;58.00;;;-142.21;87.37;112049.66;5071337;28;20492;-75
2022/04/16 04:50:14;;;;;;;2.30;2.10;;;11.80;58.20;;;-142.21;86.74;112049.66;5056642;28;20452;-76
2022/04/16 04:52:42;;;;;;;3.70;2.30;;;11.70;58.50;;;-142.21;87.23;112049.66;5054493;28;20444;-75
2022/04/16 04:55:12;;;;;;;2.37;2.00;;;11.80;58.40;;;-142.21;87.74;112049.66;5055387;28;20994;-75
2022/04/16 04:57:40;;;;;;;1.87;1.77;;;11.80;58.40;;;-142.21;87.96;112049.66;5059201;28;20444;-74
2022/04/16 05:00:14;;;;;;;2.37;2.10;;;11.90;58.50;;;-142.21;87.76;112049.66;5065979;28;20448;-75
2022/04/16 05:02:43;;;;;;;2.60;2.40;;;11.80;58.30;;;-142.21;88.74;112049.66;5060208;28;20455;-74
2022/04/16 05:05:11;;;;;;;2.57;2.37;;;11.80;58.50;;;-142.21;88.06;112049.66;5053997;28;20523;-75
2022/04/16 05:07:39;;;;;;;2.47;2.27;;;11.70;58.20;;;-142.21;89.32;112049.66;5052854;28;21011;-75
2022/04/16 05:10:08;;;;;;;2.43;2.23;;;11.70;58.80;;;-142.21;89.32;112049.66;5073392;28;20486;-76
2022/04/16 05:12:35;;;;;;;2.50;2.20;;;11.70;59.20;;;-142.21;89.39;112049.66;5065604;28;20558;-74
2022/04/16 05:15:04;;;;;;;2.37;2.17;;;11.70;59.20;;;-142.21;89.99;112049.66;5054979;28;20448;-74
2022/04/16 05:17:33;;;;;;;2.30;2.10;;;11.70;59.20;;;-142.21;90.57;112049.66;5049848;28;20436;-75
2022/04/16 05:20:03;;;;;;;2.60;2.40;;;11.90;59.30;;;-142.21;91.24;112049.66;5063589;28;20479;-75
2022/04/16 05:22:31;;;;;;;2.37;2.17;;;12.00;59.60;;;-142.21;91.12;112049.66;5059092;28;20562;-75
2022/04/16 05:24:59;;;;;;;2.73;2.50;;;12.10;59.50;;;-142.21;91.14;112049.66;5069736;28;20505;-76
2022/04/16 05:27:26;;;;;;;2.50;2.27;;;12.10;59.20;;;-142.21;91.12;112049.66;5069345;28;20578;-75
2022/04/16 05:30:09;;;;;;;2.50;2.30;;;12.20;59.10;;;-142.21;91.46;112049.66;5054217;28;20450;-74
2022/04/16 05:32:45;;;;;;;2.87;2.37;;;12.30;59.60;;;-142.21;91.33;112049.66;5055263;28;20465;-75
2022/04/16 05:35:12;;;;;;;2.67;2.47;;;12.40;59.20;;;-142.21;91.83;112049.66;5053259;28;20480;-76
2022/04/16 05:37:40;;;;;;;2.63;2.40;;;12.40;58.90;;;-142.21;91.57;112049.66;5038590;28;20448;-76
2022/04/16 05:40:10;;;;;;;3.47;2.43;;;12.50;59.00;;;-142.21;92.42;112049.66;5068294;28;20451;-75
2022/04/16 05:42:42;;;;;;;3.70;2.30;;;12.60;59.50;;;-142.21;92.56;112049.66;5067004;28;20527;-75
2022/04/16 05:45:14;;;;;;;2.37;2.00;;;12.60;59.60;;;-142.21;93.28;112049.66;5036215;28;20443;-75
2022/04/16 05:47:43;;;;;;;2.97;2.10;;;12.70;59.70;;;-142.21;93.38;112049.66;5067229;28;20471;-75
2022/04/16 05:50:11;;;;;;;3.40;2.23;;;12.90;59.50;;;-142.21;93.05;112049.66;5038485;28;20452;-75
2022/04/16 05:52:40;;;;;;;2.73;2.47;;;12.90;59.60;;;-142.21;94.39;112049.66;5061461;28;20486;-76
2022/04/16 05:55:08;;;;;;;2.37;2.17;;;13.00;59.70;;;-142.21;94.77;112049.66;5052121;28;20942;-75
2022/04/16 05:57:36;;;;;;;2.40;2.00;;;13.10;60.00;;;-142.21;95.30;112049.66;5052784;28;20446;-75
2022/04/16 06:00:04;;;;;;;2.60;2.40;;;13.20;60.30;;;-142.21;95.79;112049.66;5060136;28;20448;-73
2022/04/16 06:02:33;;;;;;;2.80;2.10;;;13.20;60.40;;;-142.21;95.69;112049.66;5052313;28;20460;-76
2022/04/16 06:05:01;;;;;;;2.43;2.20;;;13.30;60.40;;;-142.21;95.34;112049.66;5051933;28;20936;-76
2022/04/16 06:07:28;;;;;;;2.47;2.23;;;13.40;60.00;;;-142.21;94.58;112049.66;5053052;28;20586;-76
2022/04/16 06:09:56;;;;;;;2.77;2.30;;;13.50;59.50;;;-142.21;93.15;112049.66;5045952;28;20476;-76
2022/04/16 06:12:23;;;;;;;2.80;2.10;;;13.50;59.40;;;-142.21;94.17;112049.66;5059052;28;20482;-77
2022/04/16 06:14:52;;;;;;;2.83;2.50;;;13.60;59.60;;;-142.21;95.81;112049.66;5052333;28;20452;-75
2022/04/16 06:17:19;;;;;;;3.33;2.50;;;13.70;60.20;;;-142.21;95.00;112049.66;5051608;28;20452;-76
2022/04/16 06:19:46;;;;;;;3.90;2.70;;;13.80;60.00;;;-142.21;95.86;112049.66;5054772;28;20850;-76
2022/04/16 06:22:15;;;;;;;2.47;2.27;;;13.90;59.90;;;-142.21;95.33;112049.66;5071928;28;20522;-75
2022/04/16 06:24:42;;;;;;;2.93;2.63;;;13.90;60.10;;;-142.21;95.59;112049.66;5052671;28;20467;-77
2022/04/16 06:27:11;;;;;;;3.07;2.43;;;14.00;60.00;;;-142.21;94.78;112049.66;5052109;28;20567;-75
2022/04/16 06:29:38;;;;;;;2.93;2.63;;;14.10;59.70;;;-142.21;95.72;112049.66;5065414;28;20916;-77
2022/04/16 06:32:08;;;;;;;4.90;3.00;;;14.20;59.80;;;-142.21;93.04;112049.66;5068635;28;20542;-76
2022/04/16 06:34:35;;;;;;;2.90;2.60;;;14.30;59.20;;;-142.21;94.49;112049.66;5062192;28;20803;-77
2022/04/16 06:37:02;;;;;;;3.50;2.87;;;14.40;59.20;;;-142.21;95.02;112049.66;5052290;28;20476;-75
2022/04/16 06:39:33;;;;;;;3.10;2.80;;;14.40;59.20;;;-142.21;93.86;112049.66;5068310;28;20472;-75
2022/04/16 06:42:00;;;;;;;3.40;3.10;;;14.50;58.80;;;-142.21;93.70;112049.66;5057694;28;20443;-76
2022/04/16 06:44:28;;;;;;;3.63;3.00;;;14.60;58.80;;;-142.21;92.41;112049.66;5072058;28;20447;-75
2022/04/16 06:46:58;;;;;;;4.47;2.90;;;14.60;58.00;;;-142.21;89.96;112049.66;5062087;28;20869;-76
2022/04/16 06:49:25;;;;;;;4.77;2.93;;;14.60;57.50;;;-142.21;90.89;112049.66;5052753;28;20478;-76
2022/04/16 06:51:53;;;;;;;3.43;3.13;;;14.60;57.30;;;-142.21;89.39;112049.66;5047886;28;20510;-75
2022/04/16 06:54:23;;;;;;;3.30;2.87;;;14.70;57.10;;;-142.21;89.98;112049.66;5048474;28;20558;-76
2022/04/16 06:56:51;;;;;;;3.47;3.10;;;14.70;57.20;;;-142.21;89.05;112049.66;5038878;28;20433;-76
2022/04/16 06:59:18;;;;;;;3.30;3.00;;;14.80;57.10;;;-142.21;91.17;112049.66;5043470;28;20528;-75
2022/04/16 07:01:46;;;;;;;3.73;2.90;;;14.80;57.70;;;-142.21;90.28;112049.66;5052619;28;20463;-76
2022/04/16 07:04:13;;;;;;;3.07;2.70;;;14.90;57.50;;;-142.21;89.85;112049.66;5051465;28;20488;-74
2022/04/16 07:06:42;;;;;;;4.57;2.60;;;15.00;57.30;;;-142.21;90.59;112049.66;5050503;28;20480;-76
2022/04/16 07:09:10;;;;;;;3.00;2.70;;;15.10;57.40;;;-142.21;90.71;112049.66;5051925;28;20977;-75
2022/04/16 07:11:38;;;;;;;3.37;3.00;;;15.10;57.50;;;-142.21;88.36;112049.66;5050991;28;20455;-76
2022/04/16 07:14:07;;;;;;;4.43;3.40;;;15.20;56.60;;;-142.21;89.34;112049.66;5053082;28;20442;-76
2022/04/16 07:16:34;;;;;;;3.33;3.00;;;15.20;57.50;;;-142.21;90.44;112049.66;5037172;28;20499;-75
2022/04/16 07:19:01;;;;;;;3.80;3.10;;;15.20;57.50;;;-142.21;92.59;112049.66;5035220;28;20464;-75
2022/04/16 07:21:28;;;;;;;3.63;3.23;;;15.40;58.60;;;-142.21;91.94;112049.66;5043269;28;20452;-76
2022/04/16 07:23:56;;;;;;;4.10;3.17;;;15.50;57.90;;;-142.21;91.19;112049.66;5052496;28;20447;-76
2022/04/16 07:26:23;;;;;;;4.90;3.53;;;15.60;57.80;;;-142.21;91.87;112049.66;5052678;28;20479;-76
2022/04/16 07:28:51;;;;;;;4.00;3.60;;;15.60;57.60;;;-142.21;91.50;112049.66;5035482;28;20869;-76
2022/04/16 07:31:19;;;;;;;3.90;3.50;;;15.60;57.70;;;-142.21;88.89;112049.66;5039366;28;20448;-75
2022/04/16 07:33:47;;;;;;;3.80;3.30;;;15.60;56.90;;;-142.21;92.55;112049.66;5055245;28;20978;-74
2022/04/16 07:36:14;;;;;;;5.43;3.80;;;15.50;57.80;;;-142.21;91.81;112049.66;5044793;28;20512;-74
2022/04/16 07:38:43;;;;;;;3.77;3.43;;;15.60;58.10;;;-142.21;93.45;112049.66;5035772;28;20487;-76
2022/04/16 07:41:10;;;;;;;4.40;3.53;;;15.60;58.30;;;-142.21;90.46;112049.66;5045472;28;20824;-76
2022/04/16 07:43:37;;;;;;;6.47;3.67;;;15.80;57.30;;;-142.21;91.15;112049.66;5055234;28;20537;-75
2022/04/16 07:46:05;;;;;;;4.83;3.43;;;15.90;57.60;;;-142.21;91.72;112049.66;5055249;28;20452;-75
2022/04/16 07:48:35;;;;;;;4.23;3.40;;;15.90;58.10;;;-142.21;89.20;112049.66;5058376;28;20492;-75
2022/04/16 07:51:03;;;;;;;3.63;3.30;;;15.90;57.30;;;-142.21;87.28;112049.66;5062502;28;20432;-76
2022/04/16 07:53:31;;;;;;;5.23;3.63;;;16.00;56.30;;;-142.21;89.17;112049.66;5074670;28;20448;-77
2022/04/16 07:55:59;;;;;;;3.97;3.57;;;16.00;57.00;;;-142.21;87.48;112049.66;5070077;28;20440;-75
2022/04/16 07:58:26;;;;;;;4.97;3.63;;;16.00;56.50;;;-142.21;88.35;112049.66;5053297;28;20451;-75
2022/04/16 08:00:54;;;;;;;5.07;3.70;;;16.10;56.70;;;-142.21;91.46;112049.66;5062558;28;20455;-76
2022/04/16 08:03:21;;;;;;;4.43;3.70;;;16.10;57.30;;;-142.21;90.10;112049.66;5074233;28;20451;-77
2022/04/16 08:05:49;;;;;;;5.67;4.73;;;16.20;57.00;;;-142.21;87.05;112049.66;5074328;28;20447;-74
2022/04/16 08:08:17;;;;;;;3.37;3.07;;;16.10;56.30;;;-142.21;88.98;112049.66;5072144;28;20483;-75
2022/04/16 08:10:46;;;;;;;4.27;3.53;;;16.10;56.60;;;-142.21;88.39;112049.66;5074010;28;20493;-75
2022/04/16 08:13:13;;;;;;;4.57;3.87;;;16.10;56.80;;;-142.21;88.33;112049.66;5072062;28;20495;-75
2022/04/16 08:15:45;;;;;;;3.70;3.30;;;16.10;56.80;;;-142.21;87.42;112049.66;5054942;28;20498;-74
2022/04/16 08:18:12;;;;;;;3.60;3.30;;;16.10;56.40;;;-142.21;86.28;112049.66;5059926;28;20932;-75
2022/04/16 08:20:40;;;;;;;3.83;3.00;;;16.00;56.00;;;-142.21;84.59;112049.66;5055647;28;20552;-72
2022/04/16 08:23:09;;;;;;;5.63;3.50;;;16.10;55.70;;;-142.21;87.39;112049.66;5067128;28;20839;-76
2022/04/16 08:25:44;;;;;;;3.70;3.30;;;16.10;56.90;;;-142.21;87.21;112049.66;5053040;28;20447;-75
2022/04/16 08:28:12;;;;;;;5.43;4.23;;;16.00;56.40;;;-142.21;85.09;112049.66;5053997;28;20478;-73
2022/04/16 08:30:39;;;;;;;4.93;3.73;;;16.00;55.50;;;-142.21;85.42;112049.66;5058456;28;20530;-75
2022/04/16 08:33:08;;;;;;;4.27;3.50;;;16.10;55.70;;;-142.21;86.39;112049.66;5057593;28;20541;-75
2022/04/16 08:35:37;;;;;;;5.43;3.50;;;16.30;56.30;;;-142.21;82.75;112049.66;5053835;28;20448;-75
2022/04/16 08:38:07;;;;;;;4.27;3.40;;;16.40;55.10;;;-142.21;82.94;112049.66;5054227;28;20440;-74
2022/04/16 08:40:37;;;;;;;5.80;3.90;;;16.50;54.80;;;-142.21;79.83;112049.66;5053195;28;20440;-73
2022/04/16 08:45:56;;;;;;;4.53;3.83;;;16.70;54.60;;;-142.21;77.04;112049.66;5058967;28;20475;-74
2022/04/16 08:48:25;;;;;;;4.47;3.63;;;16.80;53.20;;;-142.21;77.16;112049.66;5054915;28;20512;-75
2022/04/16 08:50:57;;;;;;;4.23;3.83;;;17.00;53.10;;;-142.21;74.13;112049.66;5073202;28;20483;-73
2022/04/16 08:53:25;;;;;;;5.73;3.70;;;17.00;52.70;;;-142.21;78.31;112049.66;5073897;28;20440;-75
2022/04/16 08:55:53;;;;;;;4.23;3.50;;;17.00;52.80;;;-142.21;78.08;112049.66;5073200;28;20448;-74
2022/04/16 08:58:23;;;;;;;5.13;3.70;;;17.20;53.10;;;-142.21;73.71;112049.66;5059795;28;20468;-74
2022/04/16 09:00:50;;;;;;;5.00;4.00;;;17.20;52.40;;;-142.21;77.24;112049.66;5049914;28;20994;-75
2022/04/16 09:03:18;;;;;;;4.47;3.63;;;17.20;52.50;;;-142.21;73.89;112049.66;5052964;28;20808;-75
2022/04/16 09:05:46;;;;;;;5.23;3.83;;;17.40;52.20;;;-142.21;72.72;112049.66;5052737;28;20831;-74
2022/04/16 09:08:13;;;;;;;4.20;3.67;;;17.60;51.80;;;-142.21;73.49;112049.66;5053929;28;20476;-75
2022/04/16 09:10:43;;;;;;;5.30;3.83;;;17.70;51.20;;;-142.21;72.77;112049.66;5053369;28;20847;-73
2022/04/16 09:13:13;;;;;;;4.57;3.67;;;18.00;51.50;;;-142.21;70.23;112049.66;5051810;28;20518;-75
2022/04/16 09:15:44;;;;;;;4.80;3.90;;;18.10;51.00;;;-142.21;67.14;112049.66;5053097;28;20448;-75
2022/04/16 09:18:13;;;;;;;4.47;3.77;;;18.50;50.30;;;-142.21;67.17;112049.66;5052377;28;20436;-75
2022/04/16 09:20:41;;;;;;;4.17;3.40;;;18.70;49.30;;;-142.21;62.13;112049.66;5049999;28;20448;-74
2022/04/16 09:23:18;;;;;;;3.50;3.07;;;18.80;48.90;;;-142.21;63.61;112049.66;5071959;28;20454;-75
2022/04/16 09:25:46;;;;;;;4.10;3.43;;;18.80;49.00;;;-142.21;61.75;112049.66;5065871;28;20277;-73
2022/04/16 09:28:18;;;;;;;6.53;3.20;;;18.70;48.20;;;-142.21;63.16;112049.66;5052632;28;20567;-76
2022/04/16 09:30:53;;;;;;;3.90;3.43;;;18.60;48.00;;;-142.21;61.18;112049.66;5071583;28;20436;-75
2022/04/16 09:33:21;;;;;;;4.07;3.30;;;18.50;48.10;;;-142.21;61.84;112049.66;5069077;28;20501;-75
2022/04/16 09:35:53;;;;;;;4.57;3.57;;;18.40;47.70;;;-142.21;62.72;112049.66;5052407;28;20448;-75
2022/04/16 09:38:20;;;;;;;3.83;3.40;;;18.30;48.20;;;-142.21;61.63;112049.66;5052280;28;20432;-74
2022/04/16 09:40:48;;;;;;;5.33;3.70;;;18.40;48.20;;;-142.21;60.47;112049.66;5052929;28;20851;-75
2022/04/16 09:43:20;;;;;;;4.10;3.70;;;18.40;47.90;;;-142.21;61.09;112049.66;5052527;28;20821;-74
2022/04/16 09:45:47;;;;;;;5.20;3.83;;;18.50;47.60;;;-142.21;60.92;112049.66;5032799;28;20524;-74
2022/04/16 09:48:15;;;;;;;5.40;4.50;;;18.70;48.00;;;-142.21;59.44;112049.66;5032020;28;20566;-74
2022/04/16 09:50:44;;;;;;;7.00;3.90;;;18.70;47.80;;;-142.21;60.55;112049.66;5048592;28;20501;-75
2022/04/16 09:53:13;;;;;;;4.80;3.73;;;18.70;47.80;;;-142.21;57.67;112049.66;5072031;28;20470;-74
2022/04/16 09:55:42;;;;;;;5.03;3.90;;;18.80;47.60;;;-142.21;57.26;112049.66;5072375;28;21016;-73
2022/04/16 09:58:12;;;;;;;4.20;3.70;;;18.70;47.30;;;-142.21;58.30;112049.66;5072450;28;20466;-75
2022/04/16 10:00:42;;;;;;;4.30;3.77;;;18.80;47.20;;;-142.21;62.62;112049.66;5072184;28;20423;-75
2022/04/16 10:03:09;;;;;;;4.10;3.70;;;19.10;48.80;;;-142.21;56.52;112049.66;5052085;28;20456;-75
2022/04/16 10:05:37;;;;;;;4.77;4.10;;;19.30;46.30;;;-142.21;57.33;112049.66;5051762;28;20956;-76
2022/04/16 10:08:07;;;;;;;3.60;3.30;;;19.40;47.00;;;-142.21;57.89;112049.66;5052126;28;21023;-75
2022/04/16 10:10:41;;;;;;;4.30;3.80;;;19.70;47.20;;;-142.21;56.80;112049.66;5052188;28;20521;-75
2022/04/16 10:13:11;;;;;;;3.73;3.20;;;19.80;46.70;;;-142.21;54.93;112049.66;5053246;28;20484;-75
2022/04/16 10:16:11;;;;;;;4.37;3.03;;;19.90;46.50;;;-142.21;55.39;112049.66;5052352;28;20342;-75
2022/04/16 10:18:38;;;;;;;3.53;3.23;;;20.10;45.70;;;-142.21;51.81;112049.66;5054914;28;20348;-74